Time;durP1;ratioP1;P1;durP2;ratioP2;P2;SDS_P1;SDS_P2;PMS_P1;PMS_P2;Temp;Humidity;BMP_temperature;BMP_pressure;BME280_temperature;BME280_humidity;BME280_pressure;Samples;Min_cycle;Max_cycle;Signal;HPM_P1;HPM_P2
2023/09/19 00:00:41;;;;;;;3.45;1.23;;;;;;;23.98;100.00;100342.34;4997632;28;20133;-44
2023/09/19 00:03:08;;;;;;;3.55;1.88;;;;;;;23.97;100.00;100341.56;4991679;28;20050;-42
2023/09/19 00:05:38;;;;;;;3.42;1.83;;;;;;;23.98;100.00;100345.19;4991878;28;20066;-44
2023/09/19 00:08:05;;;;;;;6.32;1.73;;;;;;;23.99;100.00;100341.84;4990277;28;20054;-44
2023/09/19 00:10:36;;;;;;;4.43;1.80;;;;;;;23.97;100.00;100355.00;4996492;28;20115;-43
2023/09/19 00:13:07;;;;;;;4.22;2.10;;;;;;;23.98;100.00;100354.50;4990884;28;20050;-40
2023/09/19 00:15:39;;;;;;;3.17;1.27;;;;;;;23.99;100.00;100358.88;4991404;28;20512;-40
2023/09/19 00:18:07;;;;;;;5.20;1.77;;;;;;;23.99;100.00;100358.09;4991124;28;20117;-40
2023/09/19 00:20:36;;;;;;;6.00;1.85;;;;;;;23.97;100.00;100355.00;4994422;28;20042;-45
2023/09/19 00:23:04;;;;;;;3.08;1.58;;;;;;;23.99;100.00;100370.22;4991562;28;20460;-42
2023/09/19 00:25:32;;;;;;;5.07;1.77;;;;;;;23.99;100.00;100369.44;4991389;28;20046;-38
2023/09/19 00:27:58;;;;;;;5.50;1.52;;;;;;;24.01;100.00;100375.41;4996863;28;20069;-41
2023/09/19 00:30:25;;;;;;;4.40;1.80;;;;;;;24.01;100.00;100369.72;4991402;28;20054;-44
2023/09/19 00:32:52;;;;;;;4.82;1.95;;;;;;;23.98;100.00;100376.44;4990931;28;20050;-40
2023/09/19 00:35:19;;;;;;;8.25;1.83;;;;;;;23.98;100.00;100376.44;4991336;28;20137;-40
2023/09/19 00:37:45;;;;;;;2.15;1.60;;;;;;;24.01;100.00;100375.41;5000273;28;20054;-43
2023/09/19 00:40:12;;;;;;;5.68;1.63;;;;;;;24.00;100.00;100376.69;4990016;28;20054;-44
2023/09/19 00:42:40;;;;;;;4.45;1.73;;;;;;;23.98;100.00;100377.22;4991421;28;20046;-41
2023/09/19 00:45:11;;;;;;;3.50;1.75;;;;;;;23.98;100.00;100382.88;4990837;28;20496;-45
2023/09/19 00:47:44;;;;;;;3.72;1.40;;;;;;;23.97;100.00;100375.66;4993614;28;20049;-42
2023/09/19 00:50:14;;;;;;;5.25;1.98;;;;;;;24.00;100.00;100388.81;4991178;28;20134;-42
2023/09/19 00:52:42;;;;;;;6.40;1.88;;;;;;;24.00;100.00;100390.88;4995794;28;20056;-40
2023/09/19 00:55:10;;;;;;;6.85;1.70;;;;;;;23.97;100.00;100391.91;4990715;28;20050;-40
2023/09/19 00:57:38;;;;;;;8.15;1.63;;;;;;;23.96;100.00;100393.97;4995569;28;20053;-41
2023/09/19 01:00:08;;;;;;;5.40;1.75;;;;;;;23.97;100.00;100397.59;4990743;28;20121;-41
2023/09/19 01:02:35;;;;;;;7.53;1.98;;;;;;;23.96;100.00;100391.13;4990645;28;20053;-41
2023/09/19 01:05:04;;;;;;;6.28;1.73;;;;;;;23.95;100.00;100403.00;4991229;28;20093;-42
2023/09/19 01:07:35;;;;;;;4.03;1.58;;;;;;;23.91;100.00;100399.66;4999077;28;20156;-40
2023/09/19 01:10:09;;;;;;;7.85;2.00;;;;;;;23.94;100.00;100412.81;4988641;28;20050;-40
2023/09/19 01:12:59;;;;;;;6.50;2.13;;;;;;;23.93;100.00;100408.44;4990601;28;20057;-40
2023/09/19 01:15:40;;;;;;;6.45;1.58;;;;;;;23.90;100.00;100410.22;4990658;28;20054;-45
2023/09/19 01:18:07;;;;;;;5.43;1.80;;;;;;;23.92;100.00;100416.19;4992754;28;20078;-43
2023/09/19 01:20:52;;;;;;;6.82;1.92;;;;;;;23.91;100.00;100433.72;4989936;28;20525;-45
2023/09/19 01:23:18;;;;;;;;;;;;;;;23.89;100.00;100422.09;4995233;28;20050;-37
2023/09/19 01:26:06;;;;;;;3.85;1.70;;;;;;;23.91;100.00;100425.22;4990568;28;20008;-43
2023/09/19 01:28:47;;;;;;;7.45;2.10;;;;;;;23.89;100.00;100430.63;4994273;28;20085;-40
2023/09/19 01:31:14;;;;;;;4.82;1.75;;;;;;;23.87;100.00;100427.53;4989707;28;20089;-42
2023/09/19 01:33:59;;;;;;;5.38;1.65;;;;;;;23.85;100.00;100436.56;4990241;28;20168;-45
2023/09/19 01:36:36;;;;;;;7.47;2.30;;;;;;;23.86;100.00;100431.69;4990562;28;20066;-42
2023/09/19 01:39:10;;;;;;;10.55;1.75;;;;;;;23.85;100.00;100432.94;4994401;28;20476;-44
2023/09/19 01:41:57;;;;;;;8.02;1.80;;;;;;;23.85;100.00;100445.09;4989152;28;20078;-41
2023/09/19 01:44:42;;;;;;;8.50;1.95;;;;;;;23.87;100.00;100447.41;4990209;28;20053;-37
2023/09/19 01:47:23;;;;;;;6.28;1.50;;;;;;;23.86;100.00;100445.88;4990322;28;20049;-40
2023/09/19 01:50:13;;;;;;;6.40;1.98;;;;;;;23.86;100.00;100449.47;4991049;28;20054;-41
2023/09/19 01:52:54;;;;;;;7.45;1.80;;;;;;;23.83;100.00;100447.66;4989955;28;20050;-45
2023/09/19 01:55:22;;;;;;;5.30;1.80;;;;;;;23.84;100.00;100443.56;4989667;28;20082;-40
2023/09/19 01:57:58;;;;;;;9.27;1.92;;;;;;;23.83;100.00;100444.81;4992776;28;20077;-42
2023/09/19 02:00:29;;;;;;;6.75;2.30;;;;;;;23.81;100.00;100444.56;4989793;28;20129;-40
2023/09/19 02:02:58;;;;;;;6.90;1.60;;;;;;;23.81;100.00;100447.41;4989437;28;20571;-43
2023/09/19 02:05:27;;;;;;;4.72;1.85;;;;;;;23.84;100.00;100449.22;4989698;28;20141;-40
2023/09/19 02:07:53;;;;;;;5.45;2.10;;;;;;;23.84;100.00;100445.59;4990300;28;20077;-37
2023/09/19 02:10:20;;;;;;;3.63;1.60;;;;;;;23.81;100.00;100455.16;4989272;28;20452;-43
2023/09/19 02:12:46;;;;;;;3.85;1.88;;;;;;;23.79;100.00;100458.50;4989514;28;20626;-45
2023/09/19 02:15:15;;;;;;;7.22;2.95;;;;;;;23.80;100.00;100462.13;4989907;28;20112;-40
2023/09/19 02:17:45;;;;;;;6.40;1.85;;;;;;;23.80;100.00;100462.13;4990112;28;20607;-41
2023/09/19 02:20:14;;;;;;;5.45;1.80;;;;;;;23.81;100.00;100463.66;4989875;28;20050;-44
2023/09/19 02:22:42;;;;;;;6.45;1.80;;;;;;;23.77;100.00;100468.81;4989670;28;20053;-41
2023/09/19 02:25:08;;;;;;;5.00;1.92;;;;;;;23.79;100.00;100466.22;4989667;28;20046;-43
2023/09/19 02:27:36;;;;;;;5.90;1.92;;;;;;;23.75;100.00;100475.00;4990943;28;20572;-41
2023/09/19 02:30:03;;;;;;;6.38;1.80;;;;;;;23.77;100.00;100478.13;4988813;28;20061;-43
2023/09/19 02:32:36;;;;;;;2.75;1.33;;;;;;;23.77;100.00;100486.63;4992010;28;20101;-40
2023/09/19 02:35:04;;;;;;;7.95;2.45;;;;;;;23.75;100.00;100489.22;4989642;28;20074;-42
2023/09/19 02:37:32;;;;;;;6.70;2.05;;;;;;;23.75;100.00;100483.53;4987744;28;20081;-44
2023/09/19 02:39:59;;;;;;;5.63;1.80;;;;;;;23.72;100.00;100487.38;4988957;28;20050;-40
2023/09/19 02:42:25;;;;;;;4.22;1.67;;;;;;;23.73;100.00;100483.25;4988731;28;20495;-41
2023/09/19 02:44:52;;;;;;;7.03;1.90;;;;;;;23.73;100.00;100494.59;4989196;28;20051;-42
2023/09/19 02:47:19;;;;;;;5.15;1.80;;;;;;;23.76;100.00;100484.31;4987776;28;20661;-39
2023/09/19 02:49:46;;;;;;;4.45;1.58;;;;;;;23.76;100.00;100481.47;4990625;28;20523;-40
2023/09/19 02:52:14;;;;;;;6.60;2.28;;;;;;;23.76;100.00;100495.66;4989546;28;20062;-42
2023/09/19 02:54:41;;;;;;;4.03;1.40;;;;;;;23.75;100.00;100491.25;4990705;28;20826;-39
2023/09/19 02:57:09;;;;;;;3.88;1.67;;;;;;;23.75;100.00;100502.63;4990226;28;20046;-44
2023/09/19 02:59:37;;;;;;;5.80;1.58;;;;;;;23.78;100.00;100495.91;4991111;28;20673;-40
2023/09/19 03:02:05;;;;;;;3.88;1.38;;;;;;;23.75;100.00;100494.88;4989830;28;20046;-43
2023/09/19 03:04:33;;;;;;;7.38;2.10;;;;;;;23.71;100.00;100491.53;4993387;28;20149;-43
2023/09/19 03:07:01;;;;;;;10.02;1.90;;;;;;;23.75;100.00;100505.44;5001057;28;20053;-45
2023/09/19 03:09:27;;;;;;;5.47;2.08;;;;;;;23.73;100.00;100505.22;4993317;28;20058;-42
2023/09/19 03:11:54;;;;;;;5.45;1.70;;;;;;;23.72;100.00;100504.41;4992072;28;21716;-42
2023/09/19 03:14:21;;;;;;;8.70;2.03;;;;;;;23.72;100.00;100518.59;4992592;28;20133;-40
2023/09/19 03:16:47;;;;;;;5.55;1.92;;;;;;;23.70;100.00;100506.97;4992997;28;20151;-40
2023/09/19 03:19:15;;;;;;;8.77;1.90;;;;;;;23.72;100.00;100507.25;4997948;28;20047;-42
2023/09/19 03:21:41;;;;;;;7.05;1.77;;;;;;;23.71;100.00;100508.56;4991867;28;20050;-41
2023/09/19 03:24:08;;;;;;;6.30;1.80;;;;;;;23.71;100.00;100508.56;4992580;28;20101;-43
2023/09/19 03:26:35;;;;;;;9.15;2.00;;;;;;;23.69;100.00;100508.28;4992696;28;20089;-42
2023/09/19 03:29:07;;;;;;;6.35;1.70;;;;;;;23.72;100.00;100510.09;4994357;28;20116;-43
2023/09/19 03:31:36;;;;;;;6.97;2.10;;;;;;;23.70;100.00;100512.66;4991845;28;20043;-45
2023/09/19 03:34:03;;;;;;;5.35;1.77;;;;;;;23.71;100.00;100514.22;4992574;28;20057;-39
2023/09/19 03:36:30;;;;;;;6.85;1.65;;;;;;;23.70;100.00;100523.25;4990911;28;20509;-43
2023/09/19 03:38:57;;;;;;;5.10;1.65;;;;;;;23.71;100.00;100524.78;4996899;28;20104;-44
2023/09/19 03:41:23;;;;;;;5.45;1.98;;;;;;;23.70;100.00;100521.19;4991545;28;20484;-37
2023/09/19 03:43:50;;;;;;;6.20;2.00;;;;;;;23.68;100.00;100528.66;4992415;28;20146;-40
2023/09/19 03:46:16;;;;;;;5.97;2.00;;;;;;;23.69;100.00;100519.63;4992561;28;20058;-45
2023/09/19 03:48:43;;;;;;;7.15;1.92;;;;;;;23.68;100.00;100526.59;4992147;28;20124;-41
2023/09/19 03:51:10;;;;;;;5.45;1.92;;;;;;;23.68;100.00;100529.44;4993324;28;20101;-40
2023/09/19 03:53:37;;;;;;;8.43;2.45;;;;;;;23.69;100.00;100519.63;4991730;28;20104;-43
2023/09/19 03:56:04;;;;;;;5.70;2.22;;;;;;;23.68;100.00;100525.81;4991375;28;20050;-40
2023/09/19 03:58:30;;;;;;;8.65;1.77;;;;;;;23.66;100.00;100523.50;4991983;28;20133;-39
2023/09/19 04:00:58;;;;;;;5.80;1.60;;;;;;;23.68;100.00;100528.66;4992485;28;20077;-44
2023/09/19 04:03:34;;;;;;;7.05;2.00;;;;;;;23.67;100.00;100518.59;4992092;28;20050;-41
2023/09/19 04:06:02;;;;;;;7.97;1.90;;;;;;;23.66;100.00;100514.97;4991842;28;20105;-42
2023/09/19 04:08:29;;;;;;;7.03;1.77;;;;;;;23.67;100.00;100521.44;4991635;28;20046;-40
2023/09/19 04:10:56;;;;;;;8.20;1.98;;;;;;;23.65;100.00;100518.31;4992377;28;20046;-44
2023/09/19 04:13:23;;;;;;;8.15;1.80;;;;;;;23.67;100.00;100510.09;4991764;28;20537;-40
2023/09/19 04:15:50;;;;;;;8.48;1.65;;;;;;;23.66;100.00;100511.38;4991742;28;20055;-43
2023/09/19 04:18:16;;;;;;;5.78;1.80;;;;;;;23.65;100.00;100521.16;4991594;28;20054;-42
2023/09/19 04:20:48;;;;;;;5.25;1.83;;;;;;;23.64;100.00;100528.94;4996971;28;20062;-42
2023/09/19 04:23:15;;;;;;;7.40;1.73;;;;;;;23.66;100.00;100528.41;4991662;28;20054;-43
2023/09/19 04:25:42;;;;;;;4.45;1.60;;;;;;;23.63;100.00;100513.16;5010128;28;20141;-43
2023/09/19 04:28:10;;;;;;;9.95;2.22;;;;;;;23.65;100.00;100524.78;5010923;28;20045;-39
2023/09/19 04:30:40;;;;;;;13.25;2.55;;;;;;;23.65;100.00;100527.63;5001367;28;20050;-40
2023/09/19 04:33:07;;;;;;;6.05;1.77;;;;;;;23.66;100.00;100534.09;4984303;28;20105;-44
2023/09/19 04:35:34;;;;;;;3.40;1.38;;;;;;;23.66;100.00;100531.25;4991800;28;20050;-42
2023/09/19 04:38:03;;;;;;;5.90;1.63;;;;;;;23.63;100.00;100530.19;4991035;28;20085;-40
2023/09/19 04:40:29;;;;;;;4.38;1.52;;;;;;;23.65;100.00;100516.28;4995193;28;20054;-42
2023/09/19 04:42:56;;;;;;;3.13;1.70;;;;;;;23.67;100.00;100524.28;5007742;28;20042;-40
2023/09/19 04:45:24;;;;;;;5.28;1.42;;;;;;;23.65;100.00;100529.69;4991374;28;20058;-40
2023/09/19 04:47:51;;;;;;;23.90;2.60;;;;;;;23.63;100.00;100530.19;4990761;28;20046;-45
2023/09/19 04:50:18;;;;;;;7.25;2.08;;;;;;;23.62;100.00;100534.31;4990634;28;20073;-40
2023/09/19 04:52:45;;;;;;;5.93;2.15;;;;;;;23.63;100.00;100527.34;4989872;28;20042;-42
2023/09/19 04:55:19;;;;;;;8.75;2.28;;;;;;;23.64;100.00;100536.66;4991465;28;20078;-42
2023/09/19 04:57:50;;;;;;;9.30;1.80;;;;;;;23.62;100.00;100542.06;4990732;28;20416;-41
2023/09/19 05:00:23;;;;;;;7.53;2.47;;;;;;;23.62;100.00;100536.38;4989875;28;20572;-43
2023/09/19 05:02:53;;;;;;;5.85;2.10;;;;;;;23.61;100.00;100546.19;4991013;28;20046;-41
2023/09/19 05:05:22;;;;;;;7.55;1.83;;;;;;;23.62;100.00;100547.72;4990553;28;20054;-40
2023/09/19 05:07:49;;;;;;;6.40;1.83;;;;;;;23.63;100.00;100547.22;4989168;28;20055;-45
2023/09/19 05:10:18;;;;;;;6.07;2.05;;;;;;;23.60;100.00;100550.28;4993025;28;20056;-42
2023/09/19 05:12:47;;;;;;;8.48;1.83;;;;;;;23.61;100.00;100564.00;4991850;28;20125;-41
2023/09/19 05:15:17;;;;;;;5.50;1.75;;;;;;;23.60;100.00;100573.00;4994698;28;20137;-41
2023/09/19 05:17:51;;;;;;;5.82;1.83;;;;;;;23.62;100.00;100576.09;4992222;28;20046;-42
2023/09/19 05:20:33;;;;;;;6.65;2.03;;;;;;;23.61;100.00;100586.69;4995519;28;20061;-40
2023/09/19 05:23:12;;;;;;;6.47;1.60;;;;;;;23.60;100.00;100587.19;4996595;28;20050;-43
2023/09/19 05:25:39;;;;;;;4.20;1.67;;;;;;;23.60;100.00;100595.69;4989868;28;20046;-41
2023/09/19 05:28:07;;;;;;;5.60;1.60;;;;;;;23.61;100.00;100600.88;4989523;28;20078;-41
2023/09/19 05:30:43;;;;;;;5.82;1.63;;;;;;;23.61;100.00;100600.09;4996459;28;20493;-41
2023/09/19 05:33:12;;;;;;;5.68;1.35;;;;;;;23.59;100.00;100602.66;4994108;28;20464;-40
2023/09/19 05:35:41;;;;;;;5.70;2.00;;;;;;;23.59;100.00;100605.50;4992730;28;20072;-40
2023/09/19 05:38:12;;;;;;;5.97;1.80;;;;;;;23.57;100.00;100603.16;4986718;28;20045;-42
2023/09/19 05:40:42;;;;;;;3.33;1.58;;;;;;;23.58;100.00;100613.22;4996973;28;20493;-44
2023/09/19 05:43:09;;;;;;;8.15;1.98;;;;;;;23.58;100.00;100615.28;4992836;28;20042;-40
2023/09/19 05:45:36;;;;;;;4.10;1.40;;;;;;;23.57;100.00;100617.34;4989795;28;20078;-42
2023/09/19 05:48:11;;;;;;;5.90;2.15;;;;;;;23.58;100.00;100612.44;4989352;28;20050;-41
2023/09/19 05:50:38;;;;;;;8.55;2.00;;;;;;;23.56;100.00;100620.69;4981650;28;20050;-42
2023/09/19 05:53:05;;;;;;;7.05;2.08;;;;;;;23.57;100.00;100622.25;4988816;28;20039;-41
2023/09/19 05:55:32;;;;;;;4.82;1.83;;;;;;;23.54;100.00;100618.38;4990112;28;20074;-40
2023/09/19 05:57:59;;;;;;;7.47;2.40;;;;;;;23.55;100.00;100619.13;4989404;28;20128;-41
2023/09/19 06:00:31;;;;;;;6.70;1.88;;;;;;;23.57;100.00;100622.25;4989446;28;20054;-39
2023/09/19 06:02:59;;;;;;;7.25;1.98;;;;;;;23.56;100.00;100621.47;4992550;28;20038;-42
2023/09/19 06:05:27;;;;;;;5.70;1.70;;;;;;;23.55;100.00;100619.91;4989956;28;20069;-40
2023/09/19 06:07:54;;;;;;;5.82;1.70;;;;;;;23.58;100.00;100623.78;4989250;28;20050;-41
2023/09/19 06:10:22;;;;;;;7.00;1.63;;;;;;;23.58;100.00;100613.22;4989883;28;20083;-42
2023/09/19 06:12:49;;;;;;;6.15;1.60;;;;;;;23.54;100.00;100612.69;4994797;28;20116;-40
2023/09/19 06:15:18;;;;;;;5.57;1.70;;;;;;;23.54;100.00;100607.03;4989904;28;20058;-42
2023/09/19 06:17:49;;;;;;;6.22;1.63;;;;;;;23.54;100.00;100607.03;4986611;28;20058;-42
2023/09/19 06:20:16;;;;;;;5.32;1.80;;;;;;;23.57;100.00;100608.84;4989584;28;20101;-40
2023/09/19 06:22:45;;;;;;;3.50;1.50;;;;;;;23.60;100.00;100615.56;4993258;28;20046;-43
2023/09/19 06:25:19;;;;;;;10.93;1.83;;;;;;;23.54;100.00;100600.56;4990567;28;20588;-41
2023/09/19 06:27:52;;;;;;;4.78;1.95;;;;;;;23.58;100.00;100612.44;4988789;28;20057;-39
2023/09/19 06:30:19;;;;;;;8.57;1.73;;;;;;;23.59;100.00;100614.78;4991732;28;20049;-42
2023/09/19 06:32:45;;;;;;;7.45;1.63;;;;;;;23.61;100.00;100622.81;4985964;28;20387;-43
2023/09/19 06:35:15;;;;;;;10.80;2.47;;;;;;;23.61;100.00;100620.75;4989215;28;20133;-38
2023/09/19 06:37:43;;;;;;;6.00;1.83;;;;;;;23.62;100.00;100615.84;4987166;28;20090;-41
2023/09/19 06:40:14;;;;;;;4.07;1.50;;;;;;;23.62;100.00;100624.34;4992424;28;20056;-44
2023/09/19 06:42:42;;;;;;;7.82;1.85;;;;;;;23.62;100.00;100618.66;4986775;28;20137;-46
2023/09/19 06:45:11;;;;;;;7.32;1.63;;;;;;;23.60;100.00;100610.69;4992452;28;20086;-45
2023/09/19 06:47:38;;;;;;;5.35;1.50;;;;;;;23.62;100.00;100625.13;4987355;28;20097;-51
2023/09/19 06:50:06;;;;;;;5.97;1.63;;;;;;;23.61;100.00;100625.63;4992696;28;20042;-47
2023/09/19 06:52:33;;;;;;;5.50;1.80;;;;;;;23.61;100.00;100625.63;4988511;28;20060;-48
2023/09/19 06:54:59;;;;;;;6.60;1.60;;;;;;;23.60;100.00;100632.59;4997272;28;20050;-47
2023/09/19 06:57:26;;;;;;;7.20;2.20;;;;;;;23.61;100.00;100628.47;4990919;28;20081;-47
2023/09/19 06:59:52;;;;;;;5.75;1.90;;;;;;;23.63;100.00;100640.09;4996173;28;20108;-48
2023/09/19 07:02:19;;;;;;;3.97;1.38;;;;;;;23.62;100.00;100636.47;4987595;28;20069;-46
2023/09/19 07:04:46;;;;;;;5.97;1.63;;;;;;;23.61;100.00;100634.94;4988638;28;20050;-47
2023/09/19 07:07:13;;;;;;;5.03;1.52;;;;;;;23.62;100.00;100638.53;4988534;28;20057;-46
2023/09/19 07:09:42;;;;;;;5.28;1.60;;;;;;;23.62;100.00;100635.69;4988320;28;20141;-47
2023/09/19 07:12:08;;;;;;;7.53;1.95;;;;;;;23.61;100.00;100639.84;4995580;28;20127;-47
2023/09/19 07:14:35;;;;;;;6.57;1.70;;;;;;;23.62;100.00;100647.06;4987855;28;20050;-45
2023/09/19 07:17:03;;;;;;;3.92;1.63;;;;;;;23.64;100.00;100641.66;4987818;28;20078;-49
2023/09/19 07:19:31;;;;;;;2.97;1.10;;;;;;;23.63;100.00;100657.13;4988564;28;20054;-47
2023/09/19 07:21:59;;;;;;;4.20;1.35;;;;;;;23.64;100.00;100655.84;4987296;28;20050;-48
2023/09/19 07:24:27;;;;;;;6.35;1.70;;;;;;;23.62;100.00;100656.34;4988328;28;20454;-45
2023/09/19 07:26:53;;;;;;;7.18;1.70;;;;;;;23.62;100.00;100661.25;4988721;28;20136;-45
2023/09/19 07:29:20;;;;;;;5.90;1.45;;;;;;;23.61;100.00;100665.38;4988156;28;20456;-47
2023/09/19 07:31:47;;;;;;;4.20;1.63;;;;;;;23.60;100.00;100653.25;4990991;28;20101;-47
2023/09/19 07:34:14;;;;;;;9.95;1.83;;;;;;;23.56;100.00;100658.34;4988450;28;20050;-48
2023/09/19 07:36:41;;;;;;;7.35;1.90;;;;;;;23.57;100.00;100659.94;4988558;28;20078;-47
2023/09/19 07:39:08;;;;;;;5.82;1.75;;;;;;;23.53;100.00;100653.69;4987760;28;20050;-47
2023/09/19 07:41:49;;;;;;;13.25;2.90;;;;;;;23.47;100.00;100647.22;4988651;28;20062;-48
2023/09/19 07:44:17;;;;;;;10.60;2.22;;;;;;;23.36;100.00;100657.75;4990002;28;20101;-46
2023/09/19 07:46:44;;;;;;;10.60;2.78;;;;;;;23.31;100.00;100658.47;4991789;28;20050;-47
2023/09/19 07:49:10;;;;;;;11.98;2.63;;;;;;;23.28;100.00;100662.31;4990649;28;20104;-46
2023/09/19 07:51:38;;;;;;;13.30;2.08;;;;;;;23.26;100.00;100662.06;4990946;28;20058;-48
2023/09/19 07:54:05;;;;;;;13.48;2.83;;;;;;;23.21;100.00;100665.63;4990808;28;20046;-46
2023/09/19 07:56:31;;;;;;;11.05;2.50;;;;;;;23.13;100.00;100661.72;4992102;28;20058;-47
2023/09/19 07:58:59;;;;;;;10.35;2.38;;;;;;;23.09;100.00;100664.03;4994419;28;20504;-47
2023/09/19 08:01:27;;;;;;;10.02;2.08;;;;;;;23.11;100.00;100669.94;4996734;28;20060;-47
2023/09/19 08:03:54;;;;;;;13.30;3.00;;;;;;;23.15;100.00;100673.34;4993060;28;20069;-47
2023/09/19 08:06:20;;;;;;;13.52;2.33;;;;;;;23.12;100.00;100677.94;4991852;28;20042;-45
2023/09/19 08:08:50;;;;;;;13.75;2.95;;;;;;;23.06;100.00;100679.19;4991456;28;20058;-51
2023/09/19 08:11:18;;;;;;;17.15;2.78;;;;;;;23.03;100.00;100675.31;4986114;28;20058;-48
2023/09/19 08:13:48;;;;;;;15.05;2.50;;;;;;;23.04;100.00;100684.59;4989829;28;20129;-47
2023/09/19 08:16:19;;;;;;;11.10;2.60;;;;;;;23.02;100.00;100684.34;4989872;28;20055;-46
2023/09/19 08:18:55;;;;;;;14.48;3.10;;;;;;;23.01;100.00;100688.44;4991554;28;20404;-48
2023/09/19 08:21:22;;;;;;;;;;;;;;;22.99;100.00;100686.13;4992489;28;20058;-46
2023/09/19 08:23:48;;;;;;;13.57;4.30;;;;;;;23.02;100.00;100687.94;4998535;28;20105;-49
2023/09/19 08:26:15;;;;;;;10.88;2.45;;;;;;;22.98;100.00;100686.63;4991428;28;20046;-49
2023/09/19 08:28:41;;;;;;;14.23;2.50;;;;;;;22.94;100.00;100701.00;4991083;28;20054;-47
2023/09/19 08:31:08;;;;;;;14.10;2.47;;;;;;;22.95;100.00;100696.09;5002754;28;20072;-46
2023/09/19 08:33:37;;;;;;;15.48;3.40;;;;;;;22.95;100.00;100701.78;4994442;28;20050;-48
2023/09/19 08:36:05;;;;;;;13.15;2.95;;;;;;;22.94;100.00;100705.88;4996218;28;20061;-47
2023/09/19 08:38:34;;;;;;;17.05;3.00;;;;;;;22.86;100.00;100696.28;4991132;28;20062;-48
2023/09/19 08:41:05;;;;;;;12.60;2.42;;;;;;;22.85;100.00;100691.91;4989420;28;20058;-49
2023/09/19 08:43:33;;;;;;;16.10;3.13;;;;;;;22.86;100.00;100701.94;4992065;28;20061;-51
2023/09/19 08:46:11;;;;;;;14.75;2.92;;;;;;;22.86;100.00;100690.63;4990389;28;20435;-48
2023/09/19 08:48:54;;;;;;;13.40;2.78;;;;;;;22.76;100.00;100703.41;4999267;28;20050;-49
2023/09/19 08:51:36;;;;;;;16.88;2.92;;;;;;;22.44;100.00;100713.16;4985278;28;20050;-48
2023/09/19 08:54:13;;;;;;;12.27;2.50;;;;;;;22.33;100.00;100701.69;4987298;28;20081;-46
2023/09/19 08:56:43;;;;;;;12.82;2.92;;;;;;;22.45;100.00;100692.84;4989653;28;20108;-42
2023/09/19 08:59:13;;;;;;;10.23;2.60;;;;;;;22.29;100.00;100701.91;4990472;28;20109;-44
2023/09/19 09:01:41;;;;;;;20.05;2.97;;;;;;;22.13;100.00;100696.06;4996285;28;20543;-42
2023/09/19 09:04:12;;;;;;;13.90;2.47;;;;;;;22.17;100.00;100699.44;4991419;28;20378;-41
2023/09/19 09:06:43;;;;;;;10.75;2.45;;;;;;;22.23;100.00;100697.44;5005783;28;20137;-43
2023/09/19 09:09:10;;;;;;;14.35;2.90;;;;;;;22.15;100.00;100691.44;4994015;28;20051;-43
2023/09/19 09:11:39;;;;;;;18.02;2.92;;;;;;;21.93;100.00;100691.97;4986640;28;20529;-47
2023/09/19 09:14:09;;;;;;;15.75;3.53;;;;;;;21.98;100.00;100696.16;4982746;28;20125;-43
2023/09/19 09:16:36;;;;;;;13.43;2.92;;;;;;;22.00;100.00;100697.19;4983799;28;20046;-43
2023/09/19 09:19:02;;;;;;;15.60;2.47;;;;;;;22.14;100.00;100693.50;4981220;28;20057;-48
2023/09/19 10:45:17;;;;;;;11.88;2.92;;;;;;;22.94;100.00;100683.19;5877572;23;20423;-47
2023/09/19 10:47:44;;;;;;;11.20;2.60;;;;;;;22.88;100.00;100662.56;5002929;28;20502;-48
2023/09/19 10:50:21;;;;;;;13.25;2.75;;;;;;;22.94;100.00;100649.16;5033001;28;20116;-50
2023/09/19 10:52:58;;;;;;;9.93;2.47;;;;;;;22.93;100.00;100650.47;5026227;28;20566;-47
2023/09/19 10:55:28;;;;;;;13.68;2.15;;;;;;;22.91;100.00;100633.19;5017255;28;20046;-47
2023/09/19 10:57:57;;;;;;;13.55;3.30;;;;;;;22.93;100.00;100659.75;5000325;28;20046;-50
2023/09/19 11:00:27;;;;;;;10.70;2.75;;;;;;;22.95;100.00;100645.84;4971713;28;20043;-44
2023/09/19 11:03:12;;;;;;;9.38;2.45;;;;;;;22.97;100.00;100653.88;4966104;28;20128;-47
2023/09/19 11:05:40;;;;;;;10.75;2.75;;;;;;;22.99;100.00;100637.16;4797237;29;20677;-42
2023/09/19 11:08:08;;;;;;;9.77;2.67;;;;;;;23.00;100.00;100638.69;4748018;29;20139;-46
2023/09/19 11:10:51;;;;;;;11.55;2.78;;;;;;;23.01;100.00;100646.69;4737557;30;20747;-43
2023/09/19 11:13:30;;;;;;;12.60;2.25;;;;;;;23.03;100.00;100641.31;4733856;30;20057;-47
2023/09/19 11:15:57;;;;;;;11.38;2.20;;;;;;;23.13;100.00;100647.53;4729404;30;20478;-47
2023/09/19 11:18:39;;;;;;;15.82;2.58;;;;;;;23.17;100.00;100636.72;4733503;30;20107;-45
2023/09/19 11:21:31;;;;;;;9.32;2.22;;;;;;;23.11;100.00;100648.03;4737947;30;20053;-47
2023/09/19 11:24:10;;;;;;;6.63;2.28;;;;;;;23.17;100.00;100665.88;4740109;30;20059;-47
2023/09/19 11:26:47;;;;;;;11.73;2.38;;;;;;;23.16;100.00;100672.06;4737933;30;20598;-47
2023/09/19 11:29:31;;;;;;;11.27;2.17;;;;;;;23.13;100.00;100645.50;4740759;30;20110;-47
2023/09/19 11:31:59;;;;;;;16.33;2.55;;;;;;;23.18;100.00;100656.09;4738168;30;20684;-46
2023/09/19 11:34:47;;;;;;;16.17;2.70;;;;;;;23.14;100.00;100644.19;4737817;30;20154;-44
2023/09/19 11:37:13;;;;;;;12.02;1.90;;;;;;;23.11;100.00;100648.03;4740983;30;20064;-46
2023/09/19 11:40:13;;;;;;;8.85;2.00;;;;;;;23.15;100.00;100642.16;4736528;30;20052;-49
2023/09/19 11:42:53;;;;;;;19.80;3.42;;;;;;;23.22;100.00;100642.44;4737715;30;20102;-50
2023/09/19 11:45:40;;;;;;;15.40;2.25;;;;;;;23.18;100.00;100649.63;4736707;30;20064;-47
2023/09/19 11:48:08;;;;;;;14.55;2.47;;;;;;;23.25;100.00;100654.84;4741346;30;20067;-49
2023/09/19 11:50:37;;;;;;;8.27;2.08;;;;;;;23.21;100.00;100651.44;4750470;30;20056;-51
2023/09/19 11:53:05;;;;;;;10.38;2.60;;;;;;;23.27;100.00;100649.44;4740148;30;20137;-45
2023/09/19 11:55:34;;;;;;;8.73;1.92;;;;;;;23.24;100.00;100647.59;4748913;30;20095;-49
2023/09/19 11:58:01;;;;;;;12.82;2.50;;;;;;;23.21;100.00;100645.78;4739772;30;20148;-50
2023/09/19 12:00:28;;;;;;;7.53;2.15;;;;;;;23.21;100.00;100640.09;4738546;30;20529;-45
2023/09/19 12:03:01;;;;;;;12.48;2.25;;;;;;;23.20;100.00;100647.06;4749248;30;20051;-50
2023/09/19 12:05:43;;;;;;;12.43;2.97;;;;;;;23.23;100.00;100631.88;5069709;28;20381;-49
2023/09/19 12:08:09;;;;;;;9.10;2.58;;;;;;;23.21;100.00;100640.88;5035165;28;20052;-44
2023/09/19 12:10:50;;;;;;;11.32;2.20;;;;;;;23.20;100.00;100632.88;5027123;28;20507;-48
2023/09/19 12:13:18;;;;;;;11.25;2.85;;;;;;;23.19;100.00;100629.25;5025998;28;20057;-51
2023/09/19 12:15:47;;;;;;;9.57;2.10;;;;;;;23.22;100.00;100627.50;5030255;28;20049;-45
2023/09/19 12:18:30;;;;;;;10.77;2.15;;;;;;;23.22;100.00;100624.66;5038726;28;20041;-46
2023/09/19 12:20:58;;;;;;;15.10;2.85;;;;;;;23.22;100.00;100619.00;5025736;28;20064;-47
2023/09/19 12:23:25;;;;;;;11.93;3.00;;;;;;;23.30;100.00;100620.06;5027355;28;20057;-46
2023/09/19 12:25:55;;;;;;;10.13;2.30;;;;;;;23.35;100.00;100630.63;5035746;28;20430;-48
2023/09/19 12:28:26;;;;;;;13.90;2.65;;;;;;;23.32;100.00;100623.16;5038520;28;20081;-49
2023/09/19 12:30:55;;;;;;;16.42;3.92;;;;;;;23.26;100.00;100619.53;5031916;28;20137;-47
2023/09/19 12:33:26;;;;;;;11.38;2.15;;;;;;;23.22;100.00;100613.31;5036221;28;20049;-50
2023/09/19 12:35:55;;;;;;;10.73;2.65;;;;;;;23.25;100.00;100606.63;5034186;28;20045;-44
2023/09/19 12:38:28;;;;;;;11.68;2.95;;;;;;;23.21;100.00;100609.69;5043503;28;20064;-46
2023/09/19 12:40:56;;;;;;;14.20;2.80;;;;;;;23.20;100.00;100607.38;5041068;28;20084;-47
2023/09/19 12:43:23;;;;;;;12.13;2.78;;;;;;;23.23;100.00;100595.00;5038042;28;20546;-47
2023/09/19 12:45:50;;;;;;;12.70;2.28;;;;;;;23.33;100.00;100597.13;5024571;28;20042;-48
2023/09/19 12:48:32;;;;;;;11.98;3.13;;;;;;;23.34;100.00;100597.91;5025710;28;20100;-49
2023/09/19 12:51:12;;;;;;;16.65;4.32;;;;;;;23.37;100.00;100592.00;5033289;28;20499;-46